createdAt,value
2019-02-09T00:00:57.772Z,5.80
2019-02-09T00:01:57.032Z,5.89
2019-02-09T00:02:57.043Z,5.87
2019-02-09T00:03:57.304Z,5.89
2019-02-09T00:04:56.979Z,5.87
2019-02-09T00:05:57.017Z,5.89
2019-02-09T00:06:57.000Z,5.89
2019-02-09T00:07:56.970Z,5.87
2019-02-09T00:08:57.006Z,5.89
2019-02-09T00:09:56.928Z,5.86
2019-02-09T00:10:56.912Z,5.89
2019-02-09T00:11:56.940Z,5.87
2019-02-09T00:12:56.908Z,5.89
2019-02-09T00:13:56.929Z,5.83
2019-02-09T00:14:56.905Z,5.83
2019-02-09T00:15:56.883Z,5.84
2019-02-09T00:16:56.860Z,5.86
2019-02-09T00:17:56.856Z,5.87
2019-02-09T00:18:57.805Z,5.86
2019-02-09T00:19:56.842Z,5.84
2019-02-09T00:20:56.842Z,5.82
2019-02-09T00:21:56.846Z,5.82
2019-02-09T00:22:57.807Z,5.84
2019-02-09T00:23:56.800Z,5.87
2019-02-09T00:24:56.799Z,5.73
2019-02-09T00:25:56.785Z,5.80
2019-02-09T00:26:56.749Z,5.83
2019-02-09T00:27:56.735Z,5.82
2019-02-09T00:28:56.747Z,5.82
2019-02-09T00:29:56.726Z,5.86
2019-02-09T00:30:56.722Z,5.87
2019-02-09T00:31:56.727Z,5.79
2019-02-09T00:32:56.704Z,5.79
2019-02-09T00:33:56.702Z,5.84
2019-02-09T00:34:58.308Z,5.83
2019-02-09T00:35:56.724Z,5.68
2019-02-09T00:36:56.671Z,5.75
2019-02-09T00:37:56.662Z,5.80
2019-02-09T00:38:56.658Z,5.83
2019-02-09T00:39:56.611Z,5.89
2019-02-09T00:40:56.629Z,5.86
2019-02-09T00:41:56.595Z,5.89
2019-02-09T00:42:56.590Z,5.73
2019-02-09T00:43:56.604Z,5.71
2019-02-09T00:44:57.340Z,5.68
2019-02-09T00:45:56.567Z,5.73
2019-02-09T00:46:57.279Z,5.71
2019-02-09T00:47:56.531Z,5.79
2019-02-09T00:48:56.820Z,5.73
2019-02-09T00:49:56.529Z,5.66
2019-02-09T00:50:56.495Z,5.75
2019-02-09T00:51:56.487Z,5.69
2019-02-09T00:52:56.494Z,5.75
2019-02-09T00:53:56.476Z,5.69
2019-02-09T00:54:56.434Z,5.79
2019-02-09T00:56:03.489Z,5.76
2019-02-09T00:56:56.457Z,5.72
2019-02-09T00:58:05.334Z,5.66
2019-02-09T00:58:56.438Z,5.82
2019-02-09T00:59:56.459Z,5.84
2019-02-09T01:00:56.386Z,5.80
2019-02-09T01:01:56.358Z,5.84
2019-02-09T01:02:56.356Z,5.83
2019-02-09T01:03:56.378Z,5.86
2019-02-09T01:05:04.349Z,5.86
2019-02-09T01:05:56.357Z,5.93
2019-02-09T01:06:56.305Z,5.90
2019-02-09T01:07:56.306Z,5.98
2019-02-09T01:08:56.351Z,5.86
2019-02-09T01:09:56.311Z,5.90
2019-02-09T01:10:56.269Z,5.90
2019-02-09T01:11:56.295Z,6.04
2019-02-09T01:12:56.247Z,6.02
2019-02-09T01:13:56.237Z,6.02
2019-02-09T01:14:56.376Z,5.99
2019-02-09T01:15:56.856Z,5.90
2019-02-09T01:16:56.208Z,5.84
2019-02-09T01:17:56.207Z,5.86
2019-02-09T01:18:56.183Z,5.87
2019-02-09T01:19:56.190Z,5.89
2019-02-09T01:20:56.181Z,5.90
2019-02-09T01:21:56.176Z,5.90
2019-02-09T01:22:56.157Z,5.86
2019-02-09T01:23:56.148Z,5.87
2019-02-09T01:24:56.169Z,5.87
2019-02-09T01:25:56.121Z,5.90
2019-02-09T01:26:56.116Z,5.89
2019-02-09T01:27:56.091Z,5.86
2019-02-09T01:28:56.098Z,5.79
2019-02-09T01:30:02.286Z,5.87
2019-02-09T01:30:57.078Z,5.87
2019-02-09T01:32:03.102Z,5.83
2019-02-09T01:33:04.065Z,5.87
2019-02-09T01:33:56.067Z,5.87
2019-02-09T01:35:04.055Z,5.87
2019-02-09T01:35:56.049Z,5.84
2019-02-09T01:36:55.994Z,5.90
2019-02-09T01:37:55.978Z,5.84
2019-02-09T01:38:57.934Z,5.86
2019-02-09T01:39:56.941Z,5.79
2019-02-09T01:40:55.973Z,5.73
2019-02-09T01:41:55.967Z,5.76
2019-02-09T01:42:55.939Z,5.71
2019-02-09T01:43:55.941Z,5.68
2019-02-09T01:44:55.934Z,5.72
2019-02-09T01:45:55.918Z,5.79
2019-02-09T01:46:55.899Z,5.65
2019-02-09T01:47:55.910Z,5.68
2019-02-09T01:48:55.866Z,5.66
2019-02-09T01:49:55.960Z,5.68
2019-02-09T01:50:55.866Z,5.72
2019-02-09T01:51:55.866Z,5.66
2019-02-09T01:52:55.837Z,5.73
2019-02-09T01:53:55.827Z,5.75
2019-02-09T01:54:55.854Z,5.69
2019-02-09T01:55:55.801Z,5.75
2019-02-09T01:56:55.798Z,5.75
2019-02-09T01:57:55.794Z,5.71
2019-02-09T01:59:03.813Z,5.69
2019-02-09T02:00:10.440Z,5.69
2019-02-09T02:00:56.767Z,5.69
2019-02-09T02:01:55.774Z,5.76
2019-02-09T02:02:55.720Z,5.71
2019-02-09T02:03:55.738Z,5.76
2019-02-09T02:04:55.720Z,5.66
2019-02-09T02:05:55.669Z,5.76
2019-02-09T02:06:55.674Z,5.71
2019-02-09T02:07:56.508Z,5.71
2019-02-09T02:08:55.699Z,5.71
2019-02-09T02:09:55.679Z,5.75
2019-02-09T02:10:55.666Z,5.72
2019-02-09T02:11:55.615Z,5.69
2019-02-09T02:12:55.606Z,5.71
2019-02-09T02:13:55.612Z,5.73
2019-02-09T02:14:55.798Z,5.73
2019-02-09T02:15:55.593Z,5.79
2019-02-09T02:17:02.664Z,5.75
2019-02-09T02:17:55.640Z,5.71
2019-02-09T02:18:55.627Z,5.75
2019-02-09T02:19:56.492Z,5.73
2019-02-09T02:21:03.609Z,5.72
2019-02-09T02:22:02.574Z,5.69
2019-02-09T02:23:04.079Z,5.71
2019-02-09T02:24:03.920Z,5.75
2019-02-09T02:25:03.132Z,5.69
2019-02-09T02:26:02.545Z,5.71
2019-02-09T02:27:03.170Z,5.68
2019-02-09T02:28:04.190Z,5.72
2019-02-09T02:29:02.503Z,5.68
2019-02-09T02:30:03.478Z,5.71
2019-02-09T02:31:02.495Z,5.79
2019-02-09T02:32:03.435Z,5.66
2019-02-09T02:33:03.430Z,5.72
2019-02-09T02:33:55.415Z,5.65
2019-02-09T02:35:03.425Z,5.72
2019-02-09T02:36:04.722Z,5.68
2019-02-09T02:36:55.380Z,5.73
2019-02-09T02:37:55.464Z,5.69
2019-02-09T02:38:55.364Z,5.82
2019-02-09T02:39:55.364Z,5.68
2019-02-09T02:40:55.352Z,5.72
2019-02-09T02:41:55.287Z,5.75
2019-02-09T02:42:55.285Z,5.72
2019-02-09T02:43:55.286Z,5.68
2019-02-09T02:44:55.287Z,5.72
2019-02-09T02:45:55.287Z,5.72
2019-02-09T02:46:55.237Z,5.69
2019-02-09T02:47:55.226Z,5.71
2019-02-09T02:48:55.253Z,5.69
2019-02-09T02:49:55.227Z,5.76
2019-02-09T02:50:55.266Z,5.72
2019-02-09T02:51:55.197Z,5.76
2019-02-09T02:52:55.168Z,5.66
2019-02-09T02:53:55.178Z,5.72
2019-02-09T02:54:55.183Z,5.68
2019-02-09T02:55:55.163Z,5.72
2019-02-09T02:56:55.154Z,5.68
2019-02-09T02:57:55.162Z,5.73
2019-02-09T02:58:55.104Z,5.73
2019-02-09T02:59:55.136Z,5.71
2019-02-09T03:00:55.106Z,5.72
2019-02-09T03:01:55.093Z,5.73
2019-02-09T03:02:55.099Z,5.89
2019-02-09T03:03:55.060Z,5.82
2019-02-09T03:04:55.037Z,5.86
2019-02-09T03:05:55.392Z,5.82
2019-02-09T03:06:55.043Z,5.83
2019-02-09T03:07:55.049Z,5.82
2019-02-09T03:08:55.018Z,5.80
2019-02-09T03:09:54.982Z,5.87
2019-02-09T03:10:55.037Z,5.90
2019-02-09T03:11:54.997Z,5.90
2019-02-09T03:12:54.973Z,5.89
2019-02-09T03:13:54.989Z,5.91
2019-02-09T03:14:54.953Z,5.89
2019-02-09T03:15:54.948Z,5.94
2019-02-09T03:16:54.919Z,5.97
2019-02-09T03:17:54.945Z,5.99
2019-02-09T03:18:54.903Z,5.99
2019-02-09T03:19:54.896Z,5.94
2019-02-09T03:20:54.914Z,5.90
2019-02-09T03:21:54.891Z,5.94
2019-02-09T03:23:01.910Z,5.94
2019-02-09T03:24:01.947Z,5.90
2019-02-09T03:24:54.858Z,5.90
2019-02-09T03:25:54.879Z,5.84
2019-02-09T03:26:54.823Z,5.87
2019-02-09T03:27:54.802Z,5.87
2019-02-09T03:28:54.788Z,5.90
2019-02-09T03:29:54.797Z,5.91
2019-02-09T03:30:54.812Z,5.93
2019-02-09T03:31:54.802Z,5.97
2019-02-09T03:32:54.797Z,5.94
2019-02-09T03:33:54.745Z,5.99
2019-02-09T03:34:54.749Z,5.98
2019-02-09T03:35:54.730Z,5.97
2019-02-09T03:36:54.735Z,6.04
2019-02-09T03:37:54.773Z,5.98
2019-02-09T03:38:54.702Z,6.11
2019-02-09T03:39:54.727Z,6.14
2019-02-09T03:40:54.694Z,6.16
2019-02-09T03:41:54.672Z,6.16
2019-02-09T03:42:54.666Z,6.16
2019-02-09T03:43:54.654Z,6.14
2019-02-09T03:44:54.615Z,6.22
2019-02-09T03:45:54.645Z,6.19
2019-02-09T03:46:54.645Z,6.19
2019-02-09T03:47:54.639Z,6.24
2019-02-09T03:48:54.587Z,6.20
2019-02-09T03:49:54.586Z,6.28
2019-02-09T03:50:54.588Z,6.20
2019-02-09T03:51:54.559Z,6.26
2019-02-09T03:52:54.547Z,6.24
2019-02-09T03:53:54.543Z,6.22
2019-02-09T03:54:54.533Z,6.36
2019-02-09T03:55:54.526Z,6.27
2019-02-09T03:56:54.494Z,6.22
2019-02-09T03:57:54.491Z,6.27
2019-02-09T03:58:54.469Z,6.28
2019-02-09T03:59:54.465Z,6.28
2019-02-09T04:00:55.794Z,6.36
2019-02-09T04:01:54.463Z,6.31
2019-02-09T04:02:54.452Z,6.45
2019-02-09T04:03:54.438Z,6.44
2019-02-09T04:04:54.402Z,6.48
2019-02-09T04:05:54.483Z,6.48
2019-02-09T04:06:54.454Z,6.44
2019-02-09T04:07:54.390Z,6.38
2019-02-09T04:08:54.378Z,6.41
2019-02-09T04:09:54.365Z,6.54
2019-02-09T04:10:54.466Z,6.54
2019-02-09T04:11:54.376Z,6.52
2019-02-09T04:12:54.358Z,6.52
2019-02-09T04:13:54.333Z,6.56
2019-02-09T04:14:54.304Z,6.59
2019-02-09T04:15:54.300Z,6.64
2019-02-09T04:16:54.351Z,6.62
2019-02-09T04:17:54.339Z,6.62
2019-02-09T04:18:54.291Z,6.70
2019-02-09T04:19:54.272Z,6.67
2019-02-09T04:21:01.299Z,6.69
2019-02-09T04:21:54.256Z,6.82
2019-02-09T04:23:02.268Z,6.77
2019-02-09T04:24:02.233Z,6.82
2019-02-09T04:25:02.282Z,6.81
2019-02-09T04:25:54.214Z,6.81
2019-02-09T04:27:02.252Z,6.79
2019-02-09T04:28:02.225Z,6.78
2019-02-09T04:28:54.152Z,6.82
2019-02-09T04:29:54.149Z,6.78
2019-02-09T04:30:54.145Z,6.82
2019-02-09T04:31:54.119Z,6.87
2019-02-09T04:32:54.129Z,6.85
2019-02-09T04:33:54.099Z,6.85
2019-02-09T04:34:54.108Z,6.89
2019-02-09T04:35:54.085Z,7.00
2019-02-09T04:36:54.093Z,6.99
2019-02-09T04:37:54.059Z,6.88
2019-02-09T04:38:54.062Z,6.93
2019-02-09T04:39:54.070Z,6.89
2019-02-09T04:40:54.011Z,6.93
2019-02-09T04:41:54.049Z,6.96
2019-02-09T04:42:53.983Z,6.87
2019-02-09T04:43:53.997Z,6.92
2019-02-09T04:45:01.069Z,6.95
2019-02-09T04:45:54.004Z,6.99
2019-02-09T04:46:54.008Z,6.99
2019-02-09T04:48:00.977Z,6.95
2019-02-09T04:49:01.963Z,6.88
2019-02-09T04:49:53.950Z,6.96
2019-02-09T04:50:53.931Z,6.88
2019-02-09T04:51:53.927Z,6.88
2019-02-09T04:52:53.927Z,6.93
2019-02-09T04:53:53.898Z,7.05
2019-02-09T04:54:53.875Z,6.93
2019-02-09T04:55:53.868Z,6.97
2019-02-09T04:56:53.864Z,6.88
2019-02-09T04:57:53.833Z,6.99
2019-02-09T04:58:53.850Z,6.95
2019-02-09T04:59:53.814Z,6.99
2019-02-09T05:00:53.813Z,6.93
2019-02-09T05:01:53.799Z,7.00
2019-02-09T05:02:53.786Z,7.02
2019-02-09T05:03:53.801Z,7.03
2019-02-09T05:04:53.757Z,6.96
2019-02-09T05:05:53.757Z,6.96
2019-02-09T05:06:53.819Z,6.89
2019-02-09T05:07:53.730Z,7.03
2019-02-09T05:08:53.738Z,6.99
2019-02-09T05:09:53.712Z,6.96
2019-02-09T05:10:53.688Z,7.05
2019-02-09T05:11:53.700Z,7.05
2019-02-09T05:13:00.761Z,6.88
2019-02-09T05:14:01.000Z,6.95
2019-02-09T05:15:00.713Z,6.96
2019-02-09T05:15:53.626Z,7.03
2019-02-09T05:16:53.653Z,6.96
2019-02-09T05:17:53.629Z,7.05
2019-02-09T05:18:53.638Z,7.00
2019-02-09T05:19:53.595Z,7.07
2019-02-09T05:20:53.623Z,7.10
2019-02-09T05:21:53.621Z,7.03
2019-02-09T05:23:00.650Z,6.93
2019-02-09T05:24:02.293Z,7.05
2019-02-09T05:25:01.654Z,7.06
2019-02-09T05:26:01.605Z,7.00
2019-02-09T05:26:53.554Z,7.03
2019-02-09T05:27:53.517Z,7.02
2019-02-09T05:28:53.509Z,6.95
2019-02-09T05:29:53.535Z,7.00
2019-02-09T05:30:53.547Z,6.93
2019-02-09T05:31:53.492Z,7.00
2019-02-09T05:32:53.499Z,6.93
2019-02-09T05:33:53.474Z,6.97
2019-02-09T05:34:53.472Z,6.96
2019-02-09T05:35:53.425Z,7.05
2019-02-09T05:36:53.471Z,6.99
2019-02-09T05:37:53.427Z,6.96
2019-02-09T05:38:53.435Z,7.02
2019-02-09T05:39:53.413Z,7.06
2019-02-09T05:40:53.393Z,7.02
2019-02-09T05:41:53.424Z,7.05
2019-02-09T05:42:53.397Z,7.05
2019-02-09T05:43:53.368Z,6.97
2019-02-09T05:44:53.383Z,7.05
2019-02-09T05:45:53.353Z,6.97
2019-02-09T05:46:53.352Z,7.03
2019-02-09T05:47:53.348Z,6.99
2019-02-09T05:48:53.291Z,7.03
2019-02-09T05:49:53.283Z,7.05
2019-02-09T05:50:53.264Z,7.03
2019-02-09T05:51:53.325Z,6.95
2019-02-09T05:52:53.846Z,6.97
2019-02-09T05:53:53.271Z,6.95
2019-02-09T05:54:53.234Z,6.95
2019-02-09T05:55:53.210Z,6.81
2019-02-09T05:56:53.351Z,6.81
2019-02-09T05:57:53.262Z,6.77
2019-02-09T05:58:53.185Z,6.70
2019-02-09T06:00:01.222Z,6.66
2019-02-09T06:00:54.217Z,6.67
2019-02-09T06:01:53.189Z,6.72
2019-02-09T06:02:53.181Z,6.77
2019-02-09T06:03:53.145Z,6.75
2019-02-09T06:04:53.113Z,6.64
2019-02-09T06:05:53.108Z,6.64
2019-02-09T06:06:53.383Z,6.52
2019-02-09T06:07:53.093Z,6.56
2019-02-09T06:08:53.087Z,6.57
2019-02-09T06:09:53.853Z,6.60
2019-02-09T06:11:01.097Z,6.67
2019-02-09T06:12:01.108Z,6.63
2019-02-09T06:13:00.107Z,6.75
2019-02-09T06:14:01.086Z,6.69
2019-02-09T06:15:00.310Z,6.63
2019-02-09T06:16:00.071Z,6.69
2019-02-09T06:17:00.088Z,6.63
2019-02-09T06:18:00.061Z,6.62
2019-02-09T06:19:01.019Z,6.72
2019-02-09T06:20:03.005Z,6.63
2019-02-09T06:21:00.025Z,6.63
2019-02-09T06:22:00.988Z,6.69
2019-02-09T06:23:00.703Z,6.64
2019-02-09T06:23:52.929Z,6.69
2019-02-09T06:24:52.987Z,6.60
2019-02-09T06:26:00.735Z,6.56
2019-02-09T06:27:00.941Z,6.57
2019-02-09T06:27:52.897Z,6.45
2019-02-09T06:28:52.917Z,6.38
2019-02-09T06:29:52.836Z,6.31
2019-02-09T06:30:52.840Z,6.33
2019-02-09T06:31:52.836Z,6.38
2019-02-09T06:32:52.827Z,6.24
2019-02-09T06:33:52.836Z,6.26
2019-02-09T06:34:53.774Z,6.19
2019-02-09T06:35:52.861Z,6.14
2019-02-09T06:36:52.793Z,6.02
2019-02-09T06:37:53.014Z,6.14
2019-02-09T06:38:52.772Z,6.07
2019-02-09T06:39:52.790Z,6.01
2019-02-09T06:40:52.737Z,5.93
2019-02-09T06:42:00.814Z,5.89
2019-02-09T06:43:00.816Z,5.87
2019-02-09T06:44:00.806Z,5.90
2019-02-09T06:44:52.720Z,5.87
2019-02-09T06:45:52.716Z,5.86
2019-02-09T06:46:52.687Z,5.90
2019-02-09T06:47:52.734Z,5.84
2019-02-09T06:48:52.666Z,5.86
2019-02-09T06:49:52.658Z,5.89
2019-02-09T06:50:52.643Z,5.83
2019-02-09T06:51:52.608Z,5.87
2019-02-09T06:52:52.687Z,5.97
2019-02-09T06:53:52.626Z,5.97
2019-02-09T06:54:52.594Z,5.91
2019-02-09T06:55:52.578Z,5.90
2019-02-09T06:56:52.568Z,5.90
2019-02-09T06:57:52.579Z,5.97
2019-02-09T06:58:52.550Z,5.90
2019-02-09T07:00:01.853Z,5.87
2019-02-09T07:00:52.567Z,5.97
2019-02-09T07:01:59.620Z,5.98
2019-02-09T07:03:02.913Z,6.08
2019-02-09T07:04:03.144Z,6.17
2019-02-09T07:05:00.824Z,6.14
2019-02-09T07:06:01.450Z,6.14
2019-02-09T07:06:52.548Z,6.14
2019-02-09T07:07:52.475Z,6.26
2019-02-09T07:08:52.566Z,6.22
2019-02-09T07:11:09.184Z,6.11
2019-02-09T07:12:09.420Z,6.16
2019-02-09T07:13:09.905Z,6.16
2019-02-09T07:14:09.068Z,6.17
2019-02-09T07:15:09.192Z,6.20
2019-02-09T07:16:09.291Z,6.11
2019-02-09T07:17:18.964Z,6.14
2019-02-09T07:20:35.542Z,6.07
2019-02-09T07:24:02.723Z,6.09
2019-02-09T07:25:13.648Z,6.14
2019-02-09T07:27:28.303Z,6.11
2019-02-09T07:28:28.257Z,6.12
2019-02-09T07:29:28.249Z,6.09
2019-02-09T07:30:36.185Z,6.07
2019-02-09T07:31:28.232Z,6.07
2019-02-09T07:32:28.215Z,6.12
2019-02-09T07:33:29.125Z,6.08
2019-02-09T07:34:28.181Z,5.98
2019-02-09T07:35:28.169Z,5.97
2019-02-09T07:36:28.142Z,5.89
2019-02-09T07:37:28.126Z,5.94
2019-02-09T07:38:28.167Z,5.82
2019-02-09T07:39:28.120Z,5.84
2019-02-09T07:40:28.098Z,5.80
2019-02-09T07:41:28.106Z,5.75
2019-02-09T07:42:28.081Z,5.72
2019-02-09T07:43:28.077Z,5.68
2019-02-09T07:44:28.062Z,5.69
2019-02-09T07:45:28.054Z,5.75
2019-02-09T07:46:28.033Z,5.72
2019-02-09T07:47:28.076Z,5.73
2019-02-09T07:48:28.039Z,5.62
2019-02-09T07:49:28.023Z,5.61
2019-02-09T07:50:28.000Z,5.61
2019-02-09T07:51:28.000Z,5.53
2019-02-09T07:52:28.631Z,5.51
2019-02-09T07:53:28.072Z,5.50
2019-02-09T07:54:27.956Z,5.48
2019-02-09T07:55:27.990Z,5.59
2019-02-09T07:56:27.929Z,5.54
2019-02-09T07:57:27.930Z,5.47
2019-02-09T07:58:27.941Z,5.44
2019-02-09T07:59:27.935Z,5.46
2019-02-09T08:00:27.930Z,5.36
2019-02-09T08:01:27.893Z,5.50
2019-02-09T08:02:27.867Z,5.54
2019-02-09T08:03:27.897Z,5.53
2019-02-09T08:04:27.865Z,5.53
2019-02-09T08:05:27.849Z,5.50
2019-02-09T08:06:27.869Z,5.61
2019-02-09T08:07:27.860Z,5.61
2019-02-09T08:08:27.829Z,5.68
2019-02-09T08:09:27.821Z,5.59
2019-02-09T08:10:27.810Z,5.69
2019-02-09T08:11:27.793Z,5.64
2019-02-09T08:12:27.850Z,5.72
2019-02-09T08:13:30.499Z,5.76
2019-02-09T08:14:29.827Z,5.72
2019-02-09T08:15:28.176Z,5.72
2019-02-09T08:16:27.754Z,5.72
2019-02-09T08:17:28.707Z,5.68
2019-02-09T08:18:27.748Z,5.62
2019-02-09T08:19:27.691Z,5.54
2019-02-09T08:20:27.723Z,5.61
2019-02-09T08:21:27.682Z,5.56
2019-02-09T08:22:27.661Z,5.57
2019-02-09T08:23:27.667Z,5.64
2019-02-09T08:24:27.645Z,5.69
2019-02-09T08:25:27.711Z,5.76
2019-02-09T08:26:27.633Z,5.83
2019-02-09T08:27:27.612Z,5.89
2019-02-09T08:28:27.639Z,5.93
2019-02-09T08:29:27.586Z,6.04
2019-02-09T08:30:27.603Z,6.02
2019-02-09T08:31:27.569Z,6.16
2019-02-09T08:32:27.569Z,6.24
2019-02-09T08:33:27.564Z,6.27
2019-02-09T08:34:27.559Z,6.31
2019-02-09T08:35:27.531Z,6.30
2019-02-09T08:36:27.524Z,6.26
2019-02-09T08:37:27.509Z,6.36
2019-02-09T08:38:27.667Z,6.30
2019-02-09T08:39:27.712Z,6.27
2019-02-09T08:40:27.869Z,6.36
2019-02-09T08:41:27.909Z,6.45
2019-02-09T08:42:27.475Z,6.36
2019-02-09T08:43:27.472Z,6.48
2019-02-09T08:44:27.435Z,6.51
2019-02-09T08:45:27.486Z,6.54
2019-02-09T08:46:27.428Z,6.51
2019-02-09T08:47:27.387Z,6.59
2019-02-09T08:48:27.423Z,6.51
2019-02-09T08:49:27.386Z,6.59
2019-02-09T08:50:27.486Z,6.56
2019-02-09T08:51:27.362Z,6.51
2019-02-09T08:52:27.347Z,6.57
2019-02-09T08:53:28.136Z,6.46
2019-02-09T08:54:35.177Z,6.54
2019-02-09T08:55:27.332Z,6.52
2019-02-09T08:56:27.333Z,6.62
2019-02-09T08:57:27.311Z,6.62
2019-02-09T08:58:27.354Z,6.60
2019-02-09T08:59:27.262Z,6.56
2019-02-09T09:00:30.162Z,6.72
2019-02-09T09:01:27.353Z,6.66
2019-02-09T09:02:36.281Z,6.75
2019-02-09T09:03:27.363Z,6.78
2019-02-09T09:04:27.294Z,6.84
2019-02-09T09:05:27.245Z,6.79
2019-02-09T09:06:27.198Z,6.99
2019-02-09T09:07:27.719Z,6.92
2019-02-09T09:08:27.816Z,7.00
2019-02-09T09:09:27.186Z,7.17
2019-02-09T09:10:27.173Z,7.28
2019-02-09T09:11:27.131Z,7.24
2019-02-09T09:12:27.133Z,7.21
2019-02-09T09:13:27.145Z,7.35
2019-02-09T09:14:27.130Z,7.54
2019-02-09T09:15:27.107Z,7.94
2019-02-09T09:16:27.085Z,8.46
2019-02-09T09:17:27.078Z,9.11
2019-02-09T09:18:27.098Z,9.04
2019-02-09T09:19:27.712Z,9.91
2019-02-09T09:20:27.055Z,10.71
2019-02-09T09:21:27.052Z,11.08
2019-02-09T09:22:27.021Z,11.18
2019-02-09T09:23:27.049Z,10.89
2019-02-09T09:24:27.035Z,11.07
2019-02-09T09:25:26.989Z,10.60
2019-02-09T09:26:26.980Z,10.64
2019-02-09T09:27:26.986Z,11.00
2019-02-09T09:28:26.965Z,11.11
2019-02-09T09:29:26.941Z,11.81
2019-02-09T09:30:26.950Z,12.35
2019-02-09T09:31:27.690Z,12.25
2019-02-09T09:32:28.621Z,12.68
2019-02-09T09:33:26.943Z,12.61
2019-02-09T09:34:26.896Z,12.53
2019-02-09T09:35:26.887Z,13.19
2019-02-09T09:36:26.884Z,13.39
2019-02-09T09:37:26.874Z,13.05
2019-02-09T09:38:26.854Z,13.31
2019-02-09T09:39:26.865Z,14.00
2019-02-09T09:40:26.826Z,13.13
2019-02-09T09:41:26.817Z,12.12
2019-02-09T09:42:26.835Z,11.99
2019-02-09T09:43:26.835Z,13.44
2019-02-09T09:44:26.826Z,13.65
2019-02-09T09:45:26.808Z,13.23
2019-02-09T09:46:26.768Z,12.83
2019-02-09T09:47:26.759Z,12.00
2019-02-09T09:48:26.763Z,11.32
2019-02-09T09:49:34.837Z,10.60
2019-02-09T09:50:26.743Z,10.31
2019-02-09T09:51:26.732Z,10.22
2019-02-09T09:52:26.736Z,10.57
2019-02-09T09:53:26.709Z,10.59
2019-02-09T09:54:26.683Z,11.30
2019-02-09T09:55:26.670Z,11.41
2019-02-09T09:56:26.697Z,11.54
2019-02-09T09:57:36.968Z,12.49
2019-02-09T09:58:35.028Z,12.65
2019-02-09T09:59:28.479Z,12.25
2019-02-09T10:00:35.525Z,11.95
2019-02-09T10:01:34.394Z,11.35
2019-02-09T10:03:58.614Z,10.71
2019-02-09T10:05:07.451Z,10.99
2019-02-09T10:10:39.490Z,11.17
2019-02-09T10:11:49.398Z,11.32
2019-02-09T10:14:10.255Z,11.51
2019-02-09T10:15:11.203Z,12.35
2019-02-09T10:16:10.399Z,12.68
2019-02-09T10:17:10.161Z,12.65
2019-02-09T10:18:10.043Z,12.87
2019-02-09T10:19:11.966Z,13.13
2019-02-09T10:20:18.896Z,12.64
2019-02-09T10:21:18.664Z,12.47
2019-02-09T10:22:18.042Z,11.84
2019-02-09T10:23:10.619Z,11.83
2019-02-09T10:24:22.265Z,12.70
2019-02-09T10:25:13.458Z,13.01
2019-02-09T10:27:27.953Z,11.83
2019-02-09T10:33:57.258Z,13.71
2019-02-09T10:34:57.256Z,13.18
2019-02-09T10:35:59.387Z,13.00
2019-02-09T10:36:57.871Z,13.20
2019-02-09T10:37:57.198Z,13.05
2019-02-09T10:39:05.294Z,13.47
2019-02-09T10:40:05.866Z,13.74
2019-02-09T10:41:04.904Z,13.33
2019-02-09T10:41:57.122Z,12.22
2019-02-09T10:43:04.242Z,12.13
2019-02-09T10:44:04.231Z,12.79
2019-02-09T10:44:57.075Z,13.39
2019-02-09T10:45:58.090Z,13.42
2019-02-09T10:46:57.078Z,12.02
2019-02-09T10:47:57.054Z,12.15
2019-02-09T10:48:57.082Z,11.87
2019-02-09T10:49:57.058Z,12.24
2019-02-09T10:50:57.064Z,11.91
2019-02-09T10:51:57.066Z,12.83
2019-02-09T10:52:57.027Z,13.81
2019-02-09T10:53:57.053Z,13.42
2019-02-09T10:54:57.030Z,12.65
2019-02-09T10:55:57.036Z,12.94
2019-02-09T10:56:56.989Z,13.37
2019-02-09T10:57:56.989Z,14.25
2019-02-09T10:58:56.948Z,14.53
2019-02-09T10:59:56.955Z,13.25
2019-02-09T11:00:56.938Z,13.56
2019-02-09T11:01:56.917Z,13.67
2019-02-09T11:02:56.931Z,13.41
2019-02-09T11:03:56.894Z,13.59
2019-02-09T11:04:56.964Z,13.08
2019-02-09T11:05:56.881Z,14.50
2019-02-09T11:06:56.869Z,13.54
2019-02-09T11:07:56.857Z,12.91
2019-02-09T11:08:56.879Z,12.21
2019-02-09T11:09:56.858Z,12.06
2019-02-09T11:10:56.799Z,11.99
2019-02-09T11:11:56.847Z,11.83
2019-02-09T11:12:56.810Z,11.55
2019-02-09T11:13:56.780Z,12.91
2019-02-09T11:14:56.823Z,13.65
2019-02-09T11:15:56.761Z,13.53
2019-02-09T11:16:56.729Z,12.78
2019-02-09T11:17:56.797Z,12.98
2019-02-09T11:18:56.756Z,13.42
2019-02-09T11:19:56.742Z,12.61
2019-02-09T11:20:56.744Z,12.25
2019-02-09T11:21:56.743Z,13.67
2019-02-09T11:22:56.691Z,13.74
2019-02-09T11:23:56.765Z,13.92
2019-02-09T11:24:56.712Z,13.16
2019-02-09T11:25:56.663Z,12.47
2019-02-09T11:26:56.656Z,12.39
2019-02-09T11:27:56.648Z,11.54
2019-02-09T11:28:56.668Z,11.27
2019-02-09T11:29:56.647Z,11.10
2019-02-09T11:30:56.613Z,11.29
2019-02-09T11:31:56.666Z,11.32
2019-02-09T11:33:02.007Z,11.33
2019-02-09T11:33:56.571Z,11.23
2019-02-09T11:34:56.559Z,11.26
2019-02-09T11:35:56.536Z,11.57
2019-02-09T11:36:56.542Z,11.29
2019-02-09T11:37:56.534Z,12.07
2019-02-09T11:38:56.539Z,13.47
2019-02-09T11:39:56.523Z,14.11
2019-02-09T11:40:56.584Z,14.92
2019-02-09T11:41:56.467Z,15.07
2019-02-09T11:42:57.420Z,14.65
2019-02-09T11:43:56.533Z,14.29
2019-02-09T11:44:56.485Z,14.63
2019-02-09T11:45:56.418Z,15.43
2019-02-09T11:46:56.434Z,15.33
2019-02-09T11:47:56.927Z,15.79
2019-02-09T11:48:56.434Z,15.37
2019-02-09T11:49:56.444Z,15.39
2019-02-09T11:50:56.393Z,16.00
2019-02-09T11:51:56.385Z,15.90
2019-02-09T11:52:56.369Z,16.91
2019-02-09T11:53:56.348Z,15.88
2019-02-09T11:54:56.378Z,16.23
2019-02-09T11:55:56.348Z,15.37
2019-02-09T11:57:03.366Z,13.11
2019-02-09T11:58:05.140Z,12.64
2019-02-09T11:58:57.235Z,12.02
2019-02-09T11:59:56.340Z,11.94
2019-02-09T12:00:56.648Z,11.68
2019-02-09T12:01:56.979Z,11.62
2019-02-09T12:03:02.866Z,11.52
2019-02-09T12:03:57.273Z,11.40
2019-02-09T12:04:56.299Z,11.27
2019-02-09T12:05:56.251Z,11.25
2019-02-09T12:06:56.197Z,11.36
2019-02-09T12:07:56.199Z,11.27
2019-02-09T12:08:56.198Z,11.19
2019-02-09T12:09:57.016Z,11.41
2019-02-09T12:10:56.183Z,11.32
2019-02-09T12:11:56.160Z,11.23
2019-02-09T12:12:56.984Z,11.14
2019-02-09T12:13:57.091Z,11.08
2019-02-09T12:14:58.566Z,10.97
2019-02-09T12:15:56.247Z,10.90
2019-02-09T12:17:04.239Z,11.10
2019-02-09T12:17:56.137Z,11.18
2019-02-09T12:18:56.190Z,11.11
2019-02-09T12:19:56.158Z,11.04
2019-02-09T12:20:56.060Z,10.92
2019-02-09T12:21:56.063Z,10.84
2019-02-09T12:22:56.192Z,10.78
2019-02-09T12:23:56.037Z,10.79
2019-02-09T12:24:56.046Z,10.72
2019-02-09T12:25:56.056Z,10.68
2019-02-09T12:26:56.103Z,10.63
2019-02-09T12:27:55.987Z,10.53
2019-02-09T12:28:56.017Z,10.64
2019-02-09T12:29:56.651Z,10.63
2019-02-09T12:31:03.044Z,10.57
2019-02-09T12:32:03.021Z,10.48
2019-02-09T12:33:03.139Z,10.53
2019-02-09T12:34:03.104Z,10.59
2019-02-09T12:35:03.005Z,11.11
2019-02-09T12:36:03.643Z,11.78
2019-02-09T12:37:02.952Z,14.54
2019-02-09T12:37:55.984Z,15.73
2019-02-09T12:38:55.915Z,16.12
2019-02-09T12:39:55.868Z,16.10
2019-02-09T12:40:55.988Z,16.16
2019-02-09T12:41:55.823Z,15.09
2019-02-09T12:42:55.842Z,15.57
2019-02-09T12:43:55.799Z,15.98
2019-02-09T12:44:55.840Z,16.49
2019-02-09T12:45:55.805Z,16.49
2019-02-09T12:46:56.054Z,16.29
2019-02-09T12:47:55.809Z,15.24
2019-02-09T12:48:55.773Z,14.66
2019-02-09T12:49:55.769Z,15.17
2019-02-09T12:50:56.601Z,16.08
2019-02-09T12:51:55.804Z,16.13
2019-02-09T12:52:57.761Z,13.16
2019-02-09T12:53:55.766Z,12.46
2019-02-09T12:54:55.725Z,12.32
2019-02-09T12:55:55.737Z,12.67
2019-02-09T12:56:55.732Z,13.37
2019-02-09T12:57:55.663Z,14.29
2019-02-09T12:58:55.657Z,14.97
2019-02-09T12:59:55.739Z,13.65
2019-02-09T13:00:55.815Z,15.22
2019-02-09T13:02:04.736Z,16.15
2019-02-09T13:02:55.731Z,16.97
2019-02-09T13:03:55.659Z,17.36
2019-02-09T13:05:06.826Z,14.69
2019-02-09T13:06:07.777Z,14.82
2019-02-09T13:08:13.302Z,14.35
2019-02-09T13:09:13.144Z,15.22
2019-02-09T13:10:13.455Z,15.51
2019-02-09T13:11:13.156Z,13.01
2019-02-09T13:12:13.102Z,12.22
2019-02-09T13:13:21.746Z,11.81
2019-02-09T13:14:13.159Z,11.73
2019-02-09T13:15:13.143Z,11.66
2019-02-09T13:16:13.372Z,12.17
2019-02-09T13:17:13.095Z,11.72
2019-02-09T13:18:13.049Z,11.68
2019-02-09T13:19:13.220Z,11.45
2019-02-09T13:20:13.175Z,11.26
2019-02-09T13:21:18.172Z,11.12
2019-02-09T13:22:14.810Z,11.57
2019-02-09T13:23:14.165Z,11.23
2019-02-09T13:24:13.067Z,11.10
2019-02-09T13:25:13.368Z,10.86
2019-02-09T13:26:13.031Z,10.79
2019-02-09T13:27:13.001Z,10.82
2019-02-09T13:28:13.020Z,10.74
2019-02-09T13:29:12.949Z,10.68
2019-02-09T13:30:12.937Z,10.63
2019-02-09T13:31:12.945Z,10.69
2019-02-09T13:32:12.909Z,10.57
2019-02-09T13:33:12.908Z,10.57
2019-02-09T13:34:12.900Z,10.49